sensor_id;sensor_type;location;lat;lon;timestamp;P1;durP1;ratioP1;P2;durP2;ratioP2
20511;SDS011;10414;52.074;5.126;2023-04-25T00:00:20;14.30;;;3.60;;
20511;SDS011;10414;52.074;5.126;2023-04-25T00:02:47;15.30;;;4.20;;
20511;SDS011;10414;52.074;5.126;2023-04-25T00:05:14;23.77;;;4.20;;
20511;SDS011;10414;52.074;5.126;2023-04-25T00:07:42;18.83;;;5.00;;
20511;SDS011;10414;52.074;5.126;2023-04-25T00:10:09;22.27;;;4.00;;
20511;SDS011;10414;52.074;5.126;2023-04-25T00:12:37;15.25;;;3.50;;
20511;SDS011;10414;52.074;5.126;2023-04-25T00:15:04;13.40;;;2.90;;
20511;SDS011;10414;52.074;5.126;2023-04-25T00:17:32;9.82;;;2.47;;
20511;SDS011;10414;52.074;5.126;2023-04-25T00:19:59;14.13;;;2.80;;
20511;SDS011;10414;52.074;5.126;2023-04-25T00:22:29;11.73;;;2.90;;
20511;SDS011;10414;52.074;5.126;2023-04-25T00:24:57;7.45;;;2.85;;
20511;SDS011;10414;52.074;5.126;2023-04-25T00:27:25;13.77;;;3.03;;
20511;SDS011;10414;52.074;5.126;2023-04-25T00:29:52;13.40;;;2.50;;
20511;SDS011;10414;52.074;5.126;2023-04-25T00:32:18;10.75;;;2.60;;
20511;SDS011;10414;52.074;5.126;2023-04-25T00:34:45;11.60;;;2.97;;
20511;SDS011;10414;52.074;5.126;2023-04-25T00:37:12;5.97;;;2.55;;
20511;SDS011;10414;52.074;5.126;2023-04-25T00:39:39;14.30;;;2.60;;
20511;SDS011;10414;52.074;5.126;2023-04-25T00:42:07;12.82;;;2.80;;
20511;SDS011;10414;52.074;5.126;2023-04-25T00:44:34;12.60;;;3.17;;
20511;SDS011;10414;52.074;5.126;2023-04-25T00:47:02;11.45;;;2.80;;
20511;SDS011;10414;52.074;5.126;2023-04-25T00:49:29;12.75;;;3.00;;
20511;SDS011;10414;52.074;5.126;2023-04-25T00:51:56;16.83;;;2.70;;
20511;SDS011;10414;52.074;5.126;2023-04-25T00:54:23;11.70;;;2.95;;
20511;SDS011;10414;52.074;5.126;2023-04-25T00:56:50;13.85;;;2.83;;
20511;SDS011;10414;52.074;5.126;2023-04-25T00:59:19;12.40;;;2.58;;
20511;SDS011;10414;52.074;5.126;2023-04-25T01:01:46;12.05;;;2.88;;
20511;SDS011;10414;52.074;5.126;2023-04-25T01:04:13;13.55;;;2.75;;
20511;SDS011;10414;52.074;5.126;2023-04-25T01:06:40;13.00;;;3.53;;
20511;SDS011;10414;52.074;5.126;2023-04-25T01:09:07;13.77;;;3.40;;
20511;SDS011;10414;52.074;5.126;2023-04-25T01:11:34;15.50;;;3.17;;
20511;SDS011;10414;52.074;5.126;2023-04-25T01:14:01;14.75;;;3.33;;
20511;SDS011;10414;52.074;5.126;2023-04-25T01:16:29;14.95;;;3.15;;
20511;SDS011;10414;52.074;5.126;2023-04-25T01:18:58;23.83;;;3.73;;
20511;SDS011;10414;52.074;5.126;2023-04-25T01:21:26;11.38;;;3.10;;
20511;SDS011;10414;52.074;5.126;2023-04-25T01:23:54;17.30;;;3.55;;
20511;SDS011;10414;52.074;5.126;2023-04-25T01:26:22;14.15;;;2.78;;
20511;SDS011;10414;52.074;5.126;2023-04-25T01:28:50;12.95;;;3.22;;
20511;SDS011;10414;52.074;5.126;2023-04-25T01:31:17;15.00;;;3.92;;
20511;SDS011;10414;52.074;5.126;2023-04-25T01:33:45;11.75;;;3.47;;
20511;SDS011;10414;52.074;5.126;2023-04-25T01:36:13;14.00;;;3.35;;
20511;SDS011;10414;52.074;5.126;2023-04-25T01:38:42;13.40;;;3.17;;
20511;SDS011;10414;52.074;5.126;2023-04-25T01:41:11;15.65;;;3.40;;
20511;SDS011;10414;52.074;5.126;2023-04-25T01:43:38;13.07;;;3.50;;
20511;SDS011;10414;52.074;5.126;2023-04-25T01:46:05;13.68;;;3.08;;
20511;SDS011;10414;52.074;5.126;2023-04-25T01:48:32;15.00;;;3.45;;
20511;SDS011;10414;52.074;5.126;2023-04-25T01:50:59;14.75;;;3.30;;
20511;SDS011;10414;52.074;5.126;2023-04-25T01:53:26;13.80;;;4.03;;
20511;SDS011;10414;52.074;5.126;2023-04-25T01:55:54;13.02;;;3.30;;
20511;SDS011;10414;52.074;5.126;2023-04-25T01:58:21;15.10;;;2.70;;
20511;SDS011;10414;52.074;5.126;2023-04-25T02:00:48;13.57;;;3.20;;
20511;SDS011;10414;52.074;5.126;2023-04-25T02:03:15;12.95;;;3.13;;
20511;SDS011;10414;52.074;5.126;2023-04-25T02:05:42;13.20;;;3.47;;
20511;SDS011;10414;52.074;5.126;2023-04-25T02:08:08;12.80;;;3.28;;
20511;SDS011;10414;52.074;5.126;2023-04-25T02:10:36;9.38;;;2.80;;
20511;SDS011;10414;52.074;5.126;2023-04-25T02:13:04;15.13;;;3.42;;
20511;SDS011;10414;52.074;5.126;2023-04-25T02:15:31;10.10;;;4.18;;
20511;SDS011;10414;52.074;5.126;2023-04-25T02:17:58;18.48;;;3.35;;
20511;SDS011;10414;52.074;5.126;2023-04-25T02:20:26;12.07;;;2.83;;
20511;SDS011;10414;52.074;5.126;2023-04-25T02:22:55;21.10;;;3.38;;
20511;SDS011;10414;52.074;5.126;2023-04-25T02:25:21;21.00;;;3.58;;
20511;SDS011;10414;52.074;5.126;2023-04-25T02:27:49;19.52;;;3.50;;
20511;SDS011;10414;52.074;5.126;2023-04-25T02:30:17;14.85;;;3.10;;
20511;SDS011;10414;52.074;5.126;2023-04-25T02:32:44;10.90;;;3.15;;
20511;SDS011;10414;52.074;5.126;2023-04-25T02:35:11;14.00;;;3.42;;
20511;SDS011;10414;52.074;5.126;2023-04-25T02:37:38;14.45;;;3.75;;
20511;SDS011;10414;52.074;5.126;2023-04-25T02:40:06;17.25;;;3.45;;
20511;SDS011;10414;52.074;5.126;2023-04-25T02:42:34;15.60;;;3.88;;
20511;SDS011;10414;52.074;5.126;2023-04-25T02:45:01;12.73;;;3.35;;
20511;SDS011;10414;52.074;5.126;2023-04-25T02:47:29;12.65;;;3.72;;
20511;SDS011;10414;52.074;5.126;2023-04-25T02:49:56;15.70;;;3.42;;
20511;SDS011;10414;52.074;5.126;2023-04-25T02:52:23;12.65;;;3.55;;
20511;SDS011;10414;52.074;5.126;2023-04-25T02:54:50;13.63;;;3.78;;
20511;SDS011;10414;52.074;5.126;2023-04-25T02:57:17;15.98;;;3.03;;
20511;SDS011;10414;52.074;5.126;2023-04-25T02:59:44;12.95;;;3.63;;
20511;SDS011;10414;52.074;5.126;2023-04-25T03:02:11;16.40;;;3.45;;
20511;SDS011;10414;52.074;5.126;2023-04-25T03:04:39;14.35;;;3.83;;
20511;SDS011;10414;52.074;5.126;2023-04-25T03:07:06;12.57;;;4.05;;
20511;SDS011;10414;52.074;5.126;2023-04-25T03:09:33;16.17;;;3.60;;
20511;SDS011;10414;52.074;5.126;2023-04-25T03:12:00;14.85;;;3.28;;
20511;SDS011;10414;52.074;5.126;2023-04-25T03:14:27;15.43;;;3.40;;
20511;SDS011;10414;52.074;5.126;2023-04-25T03:16:53;13.75;;;2.95;;
20511;SDS011;10414;52.074;5.126;2023-04-25T03:19:20;10.88;;;3.17;;
20511;SDS011;10414;52.074;5.126;2023-04-25T03:21:49;11.82;;;3.17;;
20511;SDS011;10414;52.074;5.126;2023-04-25T03:24:15;19.90;;;3.38;;
20511;SDS011;10414;52.074;5.126;2023-04-25T03:26:42;11.90;;;2.80;;
20511;SDS011;10414;52.074;5.126;2023-04-25T03:29:09;11.70;;;2.60;;
20511;SDS011;10414;52.074;5.126;2023-04-25T03:31:36;9.02;;;2.38;;
20511;SDS011;10414;52.074;5.126;2023-04-25T03:34:03;9.23;;;2.10;;
20511;SDS011;10414;52.074;5.126;2023-04-25T03:36:30;6.18;;;1.50;;
20511;SDS011;10414;52.074;5.126;2023-04-25T03:38:59;5.45;;;1.20;;
20511;SDS011;10414;52.074;5.126;2023-04-25T03:41:26;7.18;;;1.52;;
20511;SDS011;10414;52.074;5.126;2023-04-25T03:43:53;8.35;;;1.85;;
20511;SDS011;10414;52.074;5.126;2023-04-25T03:46:19;7.88;;;1.50;;
20511;SDS011;10414;52.074;5.126;2023-04-25T03:48:46;8.15;;;1.83;;
20511;SDS011;10414;52.074;5.126;2023-04-25T03:51:13;7.25;;;1.70;;
20511;SDS011;10414;52.074;5.126;2023-04-25T03:53:40;9.10;;;1.50;;
20511;SDS011;10414;52.074;5.126;2023-04-25T03:56:08;6.60;;;2.15;;
20511;SDS011;10414;52.074;5.126;2023-04-25T03:58:35;7.88;;;1.77;;
20511;SDS011;10414;52.074;5.126;2023-04-25T04:01:02;9.40;;;1.65;;
20511;SDS011;10414;52.074;5.126;2023-04-25T04:03:32;10.60;;;2.15;;
20511;SDS011;10414;52.074;5.126;2023-04-25T04:05:59;5.63;;;1.63;;
20511;SDS011;10414;52.074;5.126;2023-04-25T04:08:26;6.13;;;1.77;;
20511;SDS011;10414;52.074;5.126;2023-04-25T04:10:53;8.40;;;1.85;;
20511;SDS011;10414;52.074;5.126;2023-04-25T04:13:21;7.68;;;1.95;;
20511;SDS011;10414;52.074;5.126;2023-04-25T04:15:48;7.13;;;1.70;;
20511;SDS011;10414;52.074;5.126;2023-04-25T04:18:15;9.93;;;2.00;;
20511;SDS011;10414;52.074;5.126;2023-04-25T04:20:42;8.38;;;1.92;;
20511;SDS011;10414;52.074;5.126;2023-04-25T04:23:09;9.68;;;2.00;;
20511;SDS011;10414;52.074;5.126;2023-04-25T04:25:36;8.88;;;1.60;;
20511;SDS011;10414;52.074;5.126;2023-04-25T04:28:04;6.22;;;2.10;;
20511;SDS011;10414;52.074;5.126;2023-04-25T04:30:33;7.03;;;2.50;;
20511;SDS011;10414;52.074;5.126;2023-04-25T04:33:01;10.90;;;2.20;;
20511;SDS011;10414;52.074;5.126;2023-04-25T04:35:28;6.40;;;1.90;;
20511;SDS011;10414;52.074;5.126;2023-04-25T04:37:55;9.20;;;1.80;;
20511;SDS011;10414;52.074;5.126;2023-04-25T04:40:22;7.47;;;1.65;;
20511;SDS011;10414;52.074;5.126;2023-04-25T04:42:50;7.75;;;2.08;;
20511;SDS011;10414;52.074;5.126;2023-04-25T04:45:18;13.90;;;2.10;;
20511;SDS011;10414;52.074;5.126;2023-04-25T04:47:46;8.23;;;2.25;;
20511;SDS011;10414;52.074;5.126;2023-04-25T04:50:14;5.18;;;1.60;;
20511;SDS011;10414;52.074;5.126;2023-04-25T04:52:41;8.38;;;2.22;;
20511;SDS011;10414;52.074;5.126;2023-04-25T04:55:08;7.53;;;1.80;;
20511;SDS011;10414;52.074;5.126;2023-04-25T04:57:35;9.10;;;2.00;;
20511;SDS011;10414;52.074;5.126;2023-04-25T05:00:04;6.97;;;1.70;;
20511;SDS011;10414;52.074;5.126;2023-04-25T05:02:35;6.60;;;1.60;;
20511;SDS011;10414;52.074;5.126;2023-04-25T05:05:04;9.70;;;1.65;;
20511;SDS011;10414;52.074;5.126;2023-04-25T05:07:32;8.93;;;1.97;;
20511;SDS011;10414;52.074;5.126;2023-04-25T05:09:59;11.02;;;1.65;;
20511;SDS011;10414;52.074;5.126;2023-04-25T05:12:26;10.82;;;1.60;;
20511;SDS011;10414;52.074;5.126;2023-04-25T05:14:53;7.53;;;1.48;;
20511;SDS011;10414;52.074;5.126;2023-04-25T05:17:20;9.65;;;2.05;;
20511;SDS011;10414;52.074;5.126;2023-04-25T05:19:47;6.30;;;1.65;;
20511;SDS011;10414;52.074;5.126;2023-04-25T05:22:15;8.60;;;1.65;;
20511;SDS011;10414;52.074;5.126;2023-04-25T05:24:42;11.32;;;2.13;;
20511;SDS011;10414;52.074;5.126;2023-04-25T05:27:09;13.40;;;2.40;;
20511;SDS011;10414;52.074;5.126;2023-04-25T05:29:36;7.50;;;1.90;;
20511;SDS011;10414;52.074;5.126;2023-04-25T05:32:04;8.88;;;2.33;;
20511;SDS011;10414;52.074;5.126;2023-04-25T05:34:32;5.63;;;1.43;;
20511;SDS011;10414;52.074;5.126;2023-04-25T05:36:59;3.58;;;1.25;;
20511;SDS011;10414;52.074;5.126;2023-04-25T05:39:27;11.13;;;1.77;;
20511;SDS011;10414;52.074;5.126;2023-04-25T05:41:54;7.40;;;1.65;;
20511;SDS011;10414;52.074;5.126;2023-04-25T05:44:21;7.50;;;1.70;;
20511;SDS011;10414;52.074;5.126;2023-04-25T05:46:48;7.78;;;1.35;;
20511;SDS011;10414;52.074;5.126;2023-04-25T05:49:15;5.80;;;1.38;;
20511;SDS011;10414;52.074;5.126;2023-04-25T05:51:42;11.93;;;1.80;;
20511;SDS011;10414;52.074;5.126;2023-04-25T05:54:08;6.72;;;1.30;;
20511;SDS011;10414;52.074;5.126;2023-04-25T05:56:37;8.90;;;1.40;;
20511;SDS011;10414;52.074;5.126;2023-04-25T05:59:03;7.97;;;1.40;;
20511;SDS011;10414;52.074;5.126;2023-04-25T06:01:31;7.75;;;1.48;;
20511;SDS011;10414;52.074;5.126;2023-04-25T06:03:57;7.70;;;1.55;;
20511;SDS011;10414;52.074;5.126;2023-04-25T06:06:24;5.55;;;1.50;;
20511;SDS011;10414;52.074;5.126;2023-04-25T06:08:51;6.00;;;1.38;;
20511;SDS011;10414;52.074;5.126;2023-04-25T06:11:19;5.68;;;1.30;;
20511;SDS011;10414;52.074;5.126;2023-04-25T06:13:47;8.38;;;1.50;;
20511;SDS011;10414;52.074;5.126;2023-04-25T06:16:14;9.55;;;1.83;;
20511;SDS011;10414;52.074;5.126;2023-04-25T06:18:40;5.75;;;1.45;;
20511;SDS011;10414;52.074;5.126;2023-04-25T06:21:07;7.45;;;1.70;;
20511;SDS011;10414;52.074;5.126;2023-04-25T06:23:34;7.32;;;1.52;;
20511;SDS011;10414;52.074;5.126;2023-04-25T06:26:01;6.13;;;1.30;;
20511;SDS011;10414;52.074;5.126;2023-04-25T06:28:28;7.35;;;1.52;;
20511;SDS011;10414;52.074;5.126;2023-04-25T06:30:56;9.32;;;1.55;;
20511;SDS011;10414;52.074;5.126;2023-04-25T06:33:23;7.13;;;1.42;;
20511;SDS011;10414;52.074;5.126;2023-04-25T06:35:50;9.30;;;2.20;;
20511;SDS011;10414;52.074;5.126;2023-04-25T06:38:17;8.60;;;1.30;;
20511;SDS011;10414;52.074;5.126;2023-04-25T06:40:43;11.20;;;2.30;;
20511;SDS011;10414;52.074;5.126;2023-04-25T06:43:10;6.55;;;1.63;;
20511;SDS011;10414;52.074;5.126;2023-04-25T06:45:37;9.35;;;1.65;;
20511;SDS011;10414;52.074;5.126;2023-04-25T06:48:06;7.57;;;1.40;;
20511;SDS011;10414;52.074;5.126;2023-04-25T06:50:33;6.65;;;1.38;;
20511;SDS011;10414;52.074;5.126;2023-04-25T06:53:00;7.78;;;1.83;;
20511;SDS011;10414;52.074;5.126;2023-04-25T06:55:27;8.73;;;1.67;;
20511;SDS011;10414;52.074;5.126;2023-04-25T06:57:55;8.52;;;1.55;;
20511;SDS011;10414;52.074;5.126;2023-04-25T07:00:21;9.02;;;1.67;;
20511;SDS011;10414;52.074;5.126;2023-04-25T07:02:48;11.05;;;1.73;;
20511;SDS011;10414;52.074;5.126;2023-04-25T07:05:17;13.45;;;1.95;;
20511;SDS011;10414;52.074;5.126;2023-04-25T07:07:43;8.63;;;1.60;;
20511;SDS011;10414;52.074;5.126;2023-04-25T07:10:10;10.45;;;2.42;;
20511;SDS011;10414;52.074;5.126;2023-04-25T07:12:37;7.93;;;1.58;;
20511;SDS011;10414;52.074;5.126;2023-04-25T07:15:04;8.73;;;1.67;;
20511;SDS011;10414;52.074;5.126;2023-04-25T07:17:35;11.90;;;1.83;;
20511;SDS011;10414;52.074;5.126;2023-04-25T07:20:01;8.88;;;1.83;;
20511;SDS011;10414;52.074;5.126;2023-04-25T07:22:32;10.00;;;1.80;;
20511;SDS011;10414;52.074;5.126;2023-04-25T07:24:59;7.03;;;1.90;;
20511;SDS011;10414;52.074;5.126;2023-04-25T07:27:25;7.97;;;1.83;;
20511;SDS011;10414;52.074;5.126;2023-04-25T07:29:53;10.30;;;1.48;;
20511;SDS011;10414;52.074;5.126;2023-04-25T07:32:19;8.50;;;1.60;;
20511;SDS011;10414;52.074;5.126;2023-04-25T07:34:46;8.65;;;1.77;;
20511;SDS011;10414;52.074;5.126;2023-04-25T07:37:13;9.85;;;1.73;;
20511;SDS011;10414;52.074;5.126;2023-04-25T07:39:41;10.30;;;1.55;;
20511;SDS011;10414;52.074;5.126;2023-04-25T07:42:08;4.85;;;1.00;;
20511;SDS011;10414;52.074;5.126;2023-04-25T07:44:35;5.53;;;0.90;;
20511;SDS011;10414;52.074;5.126;2023-04-25T07:47:04;3.72;;;0.80;;
20511;SDS011;10414;52.074;5.126;2023-04-25T07:49:32;11.13;;;3.35;;
20511;SDS011;10414;52.074;5.126;2023-04-25T07:51:59;2.05;;;0.70;;
20511;SDS011;10414;52.074;5.126;2023-04-25T07:54:26;4.00;;;0.80;;
20511;SDS011;10414;52.074;5.126;2023-04-25T07:56:55;5.20;;;1.02;;
20511;SDS011;10414;52.074;5.126;2023-04-25T07:59:22;5.85;;;1.00;;
20511;SDS011;10414;52.074;5.126;2023-04-25T08:01:48;3.42;;;0.90;;
20511;SDS011;10414;52.074;5.126;2023-04-25T08:04:15;3.28;;;0.70;;
20511;SDS011;10414;52.074;5.126;2023-04-25T08:06:42;3.75;;;0.88;;
20511;SDS011;10414;52.074;5.126;2023-04-25T08:09:10;5.78;;;0.90;;
20511;SDS011;10414;52.074;5.126;2023-04-25T08:11:37;5.90;;;1.20;;
20511;SDS011;10414;52.074;5.126;2023-04-25T08:14:05;4.70;;;0.88;;
20511;SDS011;10414;52.074;5.126;2023-04-25T08:16:32;9.52;;;1.50;;
20511;SDS011;10414;52.074;5.126;2023-04-25T08:19:00;6.85;;;1.10;;
20511;SDS011;10414;52.074;5.126;2023-04-25T08:21:27;4.40;;;1.00;;
20511;SDS011;10414;52.074;5.126;2023-04-25T08:23:54;8.18;;;1.23;;
20511;SDS011;10414;52.074;5.126;2023-04-25T08:26:20;7.63;;;1.52;;
20511;SDS011;10414;52.074;5.126;2023-04-25T08:28:47;6.28;;;1.20;;
20511;SDS011;10414;52.074;5.126;2023-04-25T08:31:16;6.35;;;1.48;;
20511;SDS011;10414;52.074;5.126;2023-04-25T08:33:42;7.20;;;1.20;;
20511;SDS011;10414;52.074;5.126;2023-04-25T08:36:09;5.82;;;1.17;;
20511;SDS011;10414;52.074;5.126;2023-04-25T08:38:36;7.05;;;1.42;;
20511;SDS011;10414;52.074;5.126;2023-04-25T08:41:03;6.97;;;1.17;;
20511;SDS011;10414;52.074;5.126;2023-04-25T08:43:32;9.55;;;1.33;;
20511;SDS011;10414;52.074;5.126;2023-04-25T08:46:01;6.53;;;1.20;;
20511;SDS011;10414;52.074;5.126;2023-04-25T08:48:30;7.45;;;1.05;;
20511;SDS011;10414;52.074;5.126;2023-04-25T08:51:00;7.93;;;1.10;;
20511;SDS011;10414;52.074;5.126;2023-04-25T08:53:29;8.48;;;1.50;;
20511;SDS011;10414;52.074;5.126;2023-04-25T08:55:58;6.20;;;1.27;;
20511;SDS011;10414;52.074;5.126;2023-04-25T08:58:27;5.35;;;1.40;;
20511;SDS011;10414;52.074;5.126;2023-04-25T09:00:54;10.68;;;1.40;;
20511;SDS011;10414;52.074;5.126;2023-04-25T09:03:21;8.55;;;1.70;;
20511;SDS011;10414;52.074;5.126;2023-04-25T09:05:49;5.57;;;1.38;;
20511;SDS011;10414;52.074;5.126;2023-04-25T09:08:17;7.03;;;1.40;;
20511;SDS011;10414;52.074;5.126;2023-04-25T09:10:44;6.53;;;1.10;;
20511;SDS011;10414;52.074;5.126;2023-04-25T09:13:12;5.63;;;1.13;;
20511;SDS011;10414;52.074;5.126;2023-04-25T09:15:47;3.92;;;1.00;;
20511;SDS011;10414;52.074;5.126;2023-04-25T09:18:21;4.40;;;0.80;;
20511;SDS011;10414;52.074;5.126;2023-04-25T09:20:51;4.80;;;1.27;;
20511;SDS011;10414;52.074;5.126;2023-04-25T09:23:18;9.52;;;1.17;;
20511;SDS011;10414;52.074;5.126;2023-04-25T09:25:46;4.45;;;0.82;;
20511;SDS011;10414;52.074;5.126;2023-04-25T09:28:14;4.03;;;0.73;;
20511;SDS011;10414;52.074;5.126;2023-04-25T09:30:42;3.40;;;0.90;;
20511;SDS011;10414;52.074;5.126;2023-04-25T09:33:09;3.78;;;1.08;;
20511;SDS011;10414;52.074;5.126;2023-04-25T09:35:38;5.68;;;1.25;;
20511;SDS011;10414;52.074;5.126;2023-04-25T09:38:11;7.35;;;1.17;;
20511;SDS011;10414;52.074;5.126;2023-04-25T09:40:40;8.05;;;1.20;;
20511;SDS011;10414;52.074;5.126;2023-04-25T09:43:10;5.05;;;1.10;;
20511;SDS011;10414;52.074;5.126;2023-04-25T09:45:46;5.40;;;1.23;;
20511;SDS011;10414;52.074;5.126;2023-04-25T09:48:16;5.25;;;1.40;;
20511;SDS011;10414;52.074;5.126;2023-04-25T09:50:44;8.05;;;1.02;;
20511;SDS011;10414;52.074;5.126;2023-04-25T09:53:13;3.53;;;0.80;;
20511;SDS011;10414;52.074;5.126;2023-04-25T09:55:40;6.47;;;0.80;;
20511;SDS011;10414;52.074;5.126;2023-04-25T09:58:10;8.80;;;0.85;;
20511;SDS011;10414;52.074;5.126;2023-04-25T10:00:38;4.00;;;0.65;;
20511;SDS011;10414;52.074;5.126;2023-04-25T10:03:06;4.18;;;1.10;;
20511;SDS011;10414;52.074;5.126;2023-04-25T10:05:34;5.93;;;0.95;;
20511;SDS011;10414;52.074;5.126;2023-04-25T10:08:03;3.10;;;0.90;;
20511;SDS011;10414;52.074;5.126;2023-04-25T10:10:31;3.67;;;0.70;;
20511;SDS011;10414;52.074;5.126;2023-04-25T10:13:02;4.07;;;0.80;;
20511;SDS011;10414;52.074;5.126;2023-04-25T10:15:30;4.50;;;0.60;;
20511;SDS011;10414;52.074;5.126;2023-04-25T10:18:00;3.50;;;0.60;;
20511;SDS011;10414;52.074;5.126;2023-04-25T10:20:28;6.72;;;0.90;;
20511;SDS011;10414;52.074;5.126;2023-04-25T10:22:55;2.17;;;0.63;;
20511;SDS011;10414;52.074;5.126;2023-04-25T10:25:39;4.25;;;0.90;;
20511;SDS011;10414;52.074;5.126;2023-04-25T10:28:07;2.65;;;1.13;;
20511;SDS011;10414;52.074;5.126;2023-04-25T10:30:34;5.07;;;1.13;;
20511;SDS011;10414;52.074;5.126;2023-04-25T10:33:01;4.28;;;0.70;;
20511;SDS011;10414;52.074;5.126;2023-04-25T10:35:28;2.95;;;0.85;;
20511;SDS011;10414;52.074;5.126;2023-04-25T10:37:58;7.33;;;1.07;;
20511;SDS011;10414;52.074;5.126;2023-04-25T10:40:26;4.35;;;0.80;;
20511;SDS011;10414;52.074;5.126;2023-04-25T10:42:54;4.32;;;0.95;;
20511;SDS011;10414;52.074;5.126;2023-04-25T10:45:21;5.95;;;1.10;;
20511;SDS011;10414;52.074;5.126;2023-04-25T10:47:48;3.80;;;0.80;;
20511;SDS011;10414;52.074;5.126;2023-04-25T10:50:15;7.25;;;1.10;;
20511;SDS011;10414;52.074;5.126;2023-04-25T10:52:42;4.70;;;1.13;;
20511;SDS011;10414;52.074;5.126;2023-04-25T10:55:09;3.40;;;0.85;;
20511;SDS011;10414;52.074;5.126;2023-04-25T10:57:37;7.45;;;1.27;;
20511;SDS011;10414;52.074;5.126;2023-04-25T11:00:08;5.73;;;1.00;;
20511;SDS011;10414;52.074;5.126;2023-04-25T11:02:38;7.95;;;1.17;;
20511;SDS011;10414;52.074;5.126;2023-04-25T11:05:08;5.75;;;1.40;;
20511;SDS011;10414;52.074;5.126;2023-04-25T11:07:39;6.80;;;1.25;;
20511;SDS011;10414;52.074;5.126;2023-04-25T11:10:16;7.03;;;1.38;;
20511;SDS011;10414;52.074;5.126;2023-04-25T11:12:44;4.97;;;1.13;;
20511;SDS011;10414;52.074;5.126;2023-04-25T11:15:13;7.38;;;1.45;;
20511;SDS011;10414;52.074;5.126;2023-04-25T11:17:40;4.05;;;1.17;;
20511;SDS011;10414;52.074;5.126;2023-04-25T11:20:08;7.55;;;1.08;;
20511;SDS011;10414;52.074;5.126;2023-04-25T11:22:37;5.13;;;1.30;;
20511;SDS011;10414;52.074;5.126;2023-04-25T11:25:06;7.95;;;1.00;;
20511;SDS011;10414;52.074;5.126;2023-04-25T11:27:34;6.25;;;1.13;;
20511;SDS011;10414;52.074;5.126;2023-04-25T11:30:10;6.75;;;1.40;;
20511;SDS011;10414;52.074;5.126;2023-04-25T11:32:40;5.10;;;0.88;;
20511;SDS011;10414;52.074;5.126;2023-04-25T11:35:08;2.95;;;0.98;;
20511;SDS011;10414;52.074;5.126;2023-04-25T11:37:35;5.05;;;1.13;;
20511;SDS011;10414;52.074;5.126;2023-04-25T11:40:02;7.53;;;1.00;;
20511;SDS011;10414;52.074;5.126;2023-04-25T11:42:31;6.65;;;1.10;;
20511;SDS011;10414;52.074;5.126;2023-04-25T11:44:58;9.93;;;1.45;;
20511;SDS011;10414;52.074;5.126;2023-04-25T11:47:29;5.13;;;1.02;;
20511;SDS011;10414;52.074;5.126;2023-04-25T11:49:57;7.97;;;0.93;;
20511;SDS011;10414;52.074;5.126;2023-04-25T11:52:24;6.72;;;1.10;;
20511;SDS011;10414;52.074;5.126;2023-04-25T11:54:51;6.00;;;1.20;;
20511;SDS011;10414;52.074;5.126;2023-04-25T11:57:18;5.03;;;1.20;;
20511;SDS011;10414;52.074;5.126;2023-04-25T11:59:45;4.07;;;1.05;;
20511;SDS011;10414;52.074;5.126;2023-04-25T12:02:23;7.70;;;1.42;;
20511;SDS011;10414;52.074;5.126;2023-04-25T12:04:52;7.20;;;1.30;;
20511;SDS011;10414;52.074;5.126;2023-04-25T12:07:18;4.60;;;1.10;;
20511;SDS011;10414;52.074;5.126;2023-04-25T12:09:51;5.65;;;1.20;;
20511;SDS011;10414;52.074;5.126;2023-04-25T12:14:46;4.95;;;1.02;;
20511;SDS011;10414;52.074;5.126;2023-04-25T12:17:14;6.30;;;1.10;;
20511;SDS011;10414;52.074;5.126;2023-04-25T12:19:40;3.75;;;1.00;;
20511;SDS011;10414;52.074;5.126;2023-04-25T12:22:20;6.97;;;1.20;;
20511;SDS011;10414;52.074;5.126;2023-04-25T12:24:48;6.68;;;1.33;;
20511;SDS011;10414;52.074;5.126;2023-04-25T12:27:15;5.50;;;1.10;;
20511;SDS011;10414;52.074;5.126;2023-04-25T12:29:50;5.45;;;1.00;;
20511;SDS011;10414;52.074;5.126;2023-04-25T12:32:18;4.88;;;0.77;;
20511;SDS011;10414;52.074;5.126;2023-04-25T12:34:44;4.15;;;1.08;;
20511;SDS011;10414;52.074;5.126;2023-04-25T12:37:12;6.22;;;1.65;;
20511;SDS011;10414;52.074;5.126;2023-04-25T12:39:40;6.85;;;1.17;;
20511;SDS011;10414;52.074;5.126;2023-04-25T12:42:07;8.95;;;1.23;;
20511;SDS011;10414;52.074;5.126;2023-04-25T12:44:36;4.13;;;1.00;;
20511;SDS011;10414;52.074;5.126;2023-04-25T12:47:03;5.32;;;1.00;;
20511;SDS011;10414;52.074;5.126;2023-04-25T12:49:31;8.10;;;0.90;;
20511;SDS011;10414;52.074;5.126;2023-04-25T12:51:58;5.63;;;1.08;;
20511;SDS011;10414;52.074;5.126;2023-04-25T12:54:25;9.15;;;1.08;;
20511;SDS011;10414;52.074;5.126;2023-04-25T12:56:53;3.55;;;1.00;;
20511;SDS011;10414;52.074;5.126;2023-04-25T12:59:20;6.47;;;1.30;;
20511;SDS011;10414;52.074;5.126;2023-04-25T13:01:47;5.80;;;1.10;;
20511;SDS011;10414;52.074;5.126;2023-04-25T13:04:14;7.25;;;1.10;;
20511;SDS011;10414;52.074;5.126;2023-04-25T13:06:41;7.05;;;1.17;;
20511;SDS011;10414;52.074;5.126;2023-04-25T13:09:08;10.68;;;1.33;;
20511;SDS011;10414;52.074;5.126;2023-04-25T13:11:37;5.57;;;1.00;;
20511;SDS011;10414;52.074;5.126;2023-04-25T13:14:05;6.68;;;1.10;;
20511;SDS011;10414;52.074;5.126;2023-04-25T13:16:32;5.70;;;1.20;;
20511;SDS011;10414;52.074;5.126;2023-04-25T13:18:59;4.78;;;0.70;;
20511;SDS011;10414;52.074;5.126;2023-04-25T13:21:29;2.30;;;0.88;;
20511;SDS011;10414;52.074;5.126;2023-04-25T13:23:57;7.07;;;1.00;;
20511;SDS011;10414;52.074;5.126;2023-04-25T13:26:24;6.38;;;1.27;;
20511;SDS011;10414;52.074;5.126;2023-04-25T13:28:52;4.50;;;0.80;;
20511;SDS011;10414;52.074;5.126;2023-04-25T13:31:20;5.40;;;1.10;;
20511;SDS011;10414;52.074;5.126;2023-04-25T13:33:47;6.57;;;1.27;;
20511;SDS011;10414;52.074;5.126;2023-04-25T13:36:14;6.78;;;1.30;;
20511;SDS011;10414;52.074;5.126;2023-04-25T13:38:40;5.07;;;1.27;;
20511;SDS011;10414;52.074;5.126;2023-04-25T13:41:08;6.28;;;1.10;;
20511;SDS011;10414;52.074;5.126;2023-04-25T13:43:36;6.10;;;1.20;;
20511;SDS011;10414;52.074;5.126;2023-04-25T13:46:03;6.13;;;1.33;;
20511;SDS011;10414;52.074;5.126;2023-04-25T13:48:31;3.30;;;1.00;;
20511;SDS011;10414;52.074;5.126;2023-04-25T13:50:59;6.20;;;1.30;;
20511;SDS011;10414;52.074;5.126;2023-04-25T13:53:26;5.72;;;1.10;;
20511;SDS011;10414;52.074;5.126;2023-04-25T13:55:52;6.13;;;1.15;;
20511;SDS011;10414;52.074;5.126;2023-04-25T13:58:20;5.68;;;1.75;;
20511;SDS011;10414;52.074;5.126;2023-04-25T14:00:47;7.13;;;0.95;;
20511;SDS011;10414;52.074;5.126;2023-04-25T14:03:14;6.35;;;1.10;;
20511;SDS011;10414;52.074;5.126;2023-04-25T14:05:42;4.93;;;1.40;;
20511;SDS011;10414;52.074;5.126;2023-04-25T14:08:09;8.43;;;1.20;;
20511;SDS011;10414;52.074;5.126;2023-04-25T14:10:36;6.85;;;1.33;;
20511;SDS011;10414;52.074;5.126;2023-04-25T14:13:03;3.85;;;1.15;;
20511;SDS011;10414;52.074;5.126;2023-04-25T14:15:32;6.75;;;1.20;;
20511;SDS011;10414;52.074;5.126;2023-04-25T14:17:59;5.47;;;1.10;;
20511;SDS011;10414;52.074;5.126;2023-04-25T14:20:27;8.38;;;1.23;;
20511;SDS011;10414;52.074;5.126;2023-04-25T14:22:55;6.43;;;1.25;;
20511;SDS011;10414;52.074;5.126;2023-04-25T14:25:23;5.63;;;1.75;;
20511;SDS011;10414;52.074;5.126;2023-04-25T14:27:50;8.02;;;1.30;;
20511;SDS011;10414;52.074;5.126;2023-04-25T14:30:17;5.63;;;1.33;;
20511;SDS011;10414;52.074;5.126;2023-04-25T14:32:45;5.22;;;1.30;;
20511;SDS011;10414;52.074;5.126;2023-04-25T14:35:12;5.28;;;1.35;;
20511;SDS011;10414;52.074;5.126;2023-04-25T14:37:39;5.35;;;1.00;;
20511;SDS011;10414;52.074;5.126;2023-04-25T14:40:08;4.75;;;1.00;;
20511;SDS011;10414;52.074;5.126;2023-04-25T14:42:37;3.42;;;1.05;;
20511;SDS011;10414;52.074;5.126;2023-04-25T14:45:04;6.78;;;1.20;;
20511;SDS011;10414;52.074;5.126;2023-04-25T14:47:33;5.15;;;1.23;;